Time,TemperatureF,DewpointF,PressureIn,WindDirection,WindDirectionDegrees,WindSpeedMPH,WindSpeedGustMPH,Humidity,HourlyPrecipIn,Conditions,Clouds,dailyrainin,SoftwareType,DateUTC
2013-04-23 00:01:00,44.5,33.0,30.35,ENE,65,2.0,4.0,65,0.00,,,0.00,weatherlink.com 1.10,2013-04-23 04:01:00,
2013-04-23 00:16:00,44.2,33.0,30.35,East,80,2.0,3.0,66,0.00,,,0.00,weatherlink.com 1.10,2013-04-23 04:16:00,
2013-04-23 00:31:00,43.8,33.0,30.34,East,83,1.0,4.0,67,0.00,,,0.00,weatherlink.com 1.10,2013-04-23 04:31:00,
2013-04-23 00:46:00,43.4,33.0,30.34,ENE,78,1.0,2.0,67,0.00,,,0.00,weatherlink.com 1.10,2013-04-23 04:46:00,
2013-04-23 01:01:00,43.0,33.0,30.34,ENE,78,0.0,2.0,68,0.00,,,0.00,weatherlink.com 1.10,2013-04-23 05:01:00,
2013-04-23 01:16:00,42.3,33.0,30.33,ENE,78,0.0,0.0,70,0.00,,,0.00,weatherlink.com 1.10,2013-04-23 05:16:00,
2013-04-23 01:31:00,41.6,33.0,30.33,ENE,78,0.0,0.0,71,0.00,,,0.00,weatherlink.com 1.10,2013-04-23 05:31:00,
2013-04-23 01:46:00,40.6,33.0,30.32,ENE,78,0.0,0.0,73,0.00,,,0.00,weatherlink.com 1.10,2013-04-23 05:46:00,
2013-04-23 02:01:00,39.7,32.0,30.32,ENE,78,0.0,0.0,75,0.00,,,0.00,weatherlink.com 1.10,2013-04-23 06:01:00,
2013-04-23 02:16:00,39.3,33.0,30.31,ENE,78,0.0,0.0,78,0.00,,,0.00,weatherlink.com 1.10,2013-04-23 06:16:00,
2013-04-23 02:31:00,39.1,33.0,30.30,ENE,78,0.0,0.0,78,0.00,,,0.00,weatherlink.com 1.10,2013-04-23 06:31:00,
2013-04-23 02:46:00,38.7,33.0,30.30,ENE,78,0.0,0.0,79,0.00,,,0.00,weatherlink.com 1.10,2013-04-23 06:46:00,
2013-04-23 03:01:00,38.0,32.0,30.30,ENE,78,0.0,0.0,80,0.00,,,0.00,weatherlink.com 1.10,2013-04-23 07:01:00,
2013-04-23 03:16:00,37.2,32.0,30.29,ENE,78,0.0,0.0,81,0.00,,,0.00,weatherlink.com 1.10,2013-04-23 07:16:00,
2013-04-23 03:31:00,36.5,32.0,30.29,ENE,78,0.0,0.0,83,0.00,,,0.00,weatherlink.com 1.10,2013-04-23 07:31:00,
2013-04-23 03:46:00,36.1,32.0,30.29,ENE,78,0.0,0.0,84,0.00,,,0.00,weatherlink.com 1.10,2013-04-23 07:46:00,
2013-04-23 04:01:00,35.9,32.0,30.29,ENE,78,0.0,0.0,85,0.00,,,0.00,weatherlink.com 1.10,2013-04-23 08:01:00,
2013-04-23 04:16:00,36.2,32.0,30.29,NE,49,0.0,2.0,85,0.00,,,0.00,weatherlink.com 1.10,2013-04-23 08:16:00,
2013-04-23 04:31:00,36.5,33.0,30.29,NNW,333,0.0,1.0,86,0.00,,,0.00,weatherlink.com 1.10,2013-04-23 08:31:00,
2013-04-23 04:46:00,36.4,33.0,30.28,NNW,333,0.0,0.0,86,0.00,,,0.00,weatherlink.com 1.10,2013-04-23 08:46:00,
2013-04-23 05:01:00,36.2,32.0,30.28,WNW,286,0.0,0.0,86,0.00,,,0.00,weatherlink.com 1.10,2013-04-23 09:01:00,
2013-04-23 05:16:00,35.9,32.0,30.28,WNW,286,0.0,0.0,86,0.00,,,0.00,weatherlink.com 1.10,2013-04-23 09:16:00,
2013-04-23 05:32:00,35.7,32.0,30.27,WNW,286,0.0,1.0,87,0.00,,,0.00,weatherlink.com 1.10,2013-04-23 09:32:00,
2013-04-23 05:47:00,35.8,32.0,30.27,WSW,249,1.0,3.0,87,0.00,,,0.00,weatherlink.com 1.10,2013-04-23 09:47:00,
2013-04-23 06:02:00,36.0,33.0,30.27,WSW,249,0.0,1.0,87,0.00,,,0.00,weatherlink.com 1.10,2013-04-23 10:02:00,
2013-04-23 06:17:00,35.9,33.0,30.26,WSW,251,0.0,0.0,88,0.00,,,0.00,weatherlink.com 1.10,2013-04-23 10:17:00,
2013-04-23 06:32:00,35.9,33.0,30.27,WSW,251,0.0,2.0,88,0.00,,,0.00,weatherlink.com 1.10,2013-04-23 10:32:00,
2013-04-23 06:47:00,36.5,33.0,30.27,West,279,0.0,2.0,88,0.00,,,0.00,weatherlink.com 1.10,2013-04-23 10:47:00,
2013-04-23 07:02:00,37.2,34.0,30.27,NW,306,0.0,2.0,87,0.00,,,0.00,weatherlink.com 1.10,2013-04-23 11:02:00,
2013-04-23 07:17:00,37.8,34.0,30.27,WNW,290,0.0,2.0,85,0.00,,,0.00,weatherlink.com 1.10,2013-04-23 11:17:00,
2013-04-23 07:32:00,38.4,34.0,30.27,WNW,290,0.0,2.0,85,0.00,,,0.00,weatherlink.com 1.10,2013-04-23 11:32:00,
2013-04-23 07:47:00,39.0,35.0,30.27,WNW,290,0.0,2.0,84,0.00,,,0.00,weatherlink.com 1.10,2013-04-23 11:47:00,
2013-04-23 08:02:00,39.7,35.0,30.27,WNW,290,0.0,2.0,83,0.00,,,0.00,weatherlink.com 1.10,2013-04-23 12:02:00,
2013-04-23 08:17:00,40.3,36.0,30.27,WNW,290,0.0,1.0,83,0.00,,,0.00,weatherlink.com 1.10,2013-04-23 12:17:00,
2013-04-23 08:32:00,41.1,36.0,30.27,WNW,289,2.0,3.0,83,0.00,,,0.00,weatherlink.com 1.10,2013-04-23 12:32:00,
2013-04-23 08:47:00,41.8,37.0,30.26,NW,306,1.0,2.0,82,0.00,,,0.00,weatherlink.com 1.10,2013-04-23 12:47:00,
2013-04-23 09:02:00,42.8,37.0,30.26,NW,306,0.0,3.0,81,0.00,,,0.00,weatherlink.com 1.10,2013-04-23 13:02:00,
2013-04-23 09:17:00,43.8,38.0,30.25,NW,308,0.0,2.0,79,0.00,,,0.00,weatherlink.com 1.10,2013-04-23 13:17:00,
2013-04-23 09:32:00,44.6,38.0,30.25,North,355,0.0,2.0,78,0.00,,,0.00,weatherlink.com 1.10,2013-04-23 13:32:00,
2013-04-23 09:47:00,44.7,37.0,30.24,East,92,0.0,2.0,75,0.00,,,0.00,weatherlink.com 1.10,2013-04-23 13:47:00,
2013-04-23 10:03:00,46.4,39.0,30.23,NE,48,2.0,3.0,76,0.00,,,0.00,weatherlink.com 1.10,2013-04-23 14:03:00,
2013-04-23 10:17:00,47.3,39.0,30.23,NE,36,1.0,3.0,73,0.00,,,0.00,weatherlink.com 1.10,2013-04-23 14:17:00,
2013-04-23 10:48:00,48.5,40.0,30.22,NE,36,0.0,5.0,72,0.00,,,0.00,weatherlink.com 1.10,2013-04-23 14:48:00,
2013-04-23 11:02:00,49.4,40.0,30.22,NNE,22,0.0,3.0,70,0.00,,,0.00,weatherlink.com 1.10,2013-04-23 15:02:00,
2013-04-23 11:18:00,49.2,40.0,30.22,ESE,113,2.0,4.0,70,0.00,,,0.00,weatherlink.com 1.10,2013-04-23 15:18:00,
2013-04-23 11:33:00,49.9,40.0,30.21,ESE,108,1.0,4.0,70,0.00,,,0.00,weatherlink.com 1.10,2013-04-23 15:33:00,
2013-04-23 11:47:00,50.1,41.0,30.21,WSW,240,2.0,3.0,70,0.00,,,0.00,weatherlink.com 1.10,2013-04-23 15:47:00,
2013-04-23 12:03:00,50.4,41.0,30.21,SSW,196,1.0,3.0,70,0.00,,,0.00,weatherlink.com 1.10,2013-04-23 16:03:00,
2013-04-23 12:18:00,50.3,40.0,30.21,East,89,1.0,5.0,67,0.00,,,0.00,weatherlink.com 1.10,2013-04-23 16:18:00,
2013-04-23 12:32:00,51.0,40.0,30.20,East,98,0.0,2.0,67,0.00,,,0.00,weatherlink.com 1.10,2013-04-23 16:32:00,
2013-04-23 12:48:00,51.4,41.0,30.21,NNE,32,3.0,4.0,68,0.00,,,0.00,weatherlink.com 1.10,2013-04-23 16:48:00,
2013-04-23 13:03:00,51.2,40.0,30.21,East,99,0.0,3.0,66,0.00,,,0.00,weatherlink.com 1.10,2013-04-23 17:03:00,
2013-04-23 13:17:00,51.1,40.0,30.20,ENE,65,0.0,2.0,67,0.00,,,0.00,weatherlink.com 1.10,2013-04-23 17:17:00,
2013-04-23 13:33:00,51.4,41.0,30.19,East,101,1.0,5.0,68,0.00,,,0.00,weatherlink.com 1.10,2013-04-23 17:33:00,
2013-04-23 13:48:00,52.5,41.0,30.18,NE,48,1.0,4.0,65,0.00,,,0.00,weatherlink.com 1.10,2013-04-23 17:48:00,
2013-04-23 14:03:00,53.2,42.0,30.19,East,88,1.0,6.0,65,0.00,,,0.00,weatherlink.com 1.10,2013-04-23 18:03:00,
2013-04-23 14:18:00,54.5,44.0,30.19,SE,126,3.0,4.0,67,0.00,,,0.00,weatherlink.com 1.10,2013-04-23 18:18:00,
2013-04-23 14:33:00,53.7,41.0,30.18,ESE,117,1.0,5.0,63,0.00,,,0.00,weatherlink.com 1.10,2013-04-23 18:33:00,
2013-04-23 14:48:00,55.1,44.0,30.16,WNW,301,2.0,4.0,67,0.00,,,0.00,weatherlink.com 1.10,2013-04-23 18:48:00,
2013-04-23 15:03:00,55.1,42.0,30.15,NE,46,0.0,5.0,62,0.00,,,0.00,weatherlink.com 1.10,2013-04-23 19:03:00,
2013-04-23 15:18:00,55.5,42.0,30.13,ESE,122,1.0,5.0,60,0.00,,,0.00,weatherlink.com 1.10,2013-04-23 19:18:00,
2013-04-23 15:33:00,55.7,42.0,30.13,ESE,115,3.0,10.0,61,0.00,,,0.00,weatherlink.com 1.10,2013-04-23 19:33:00,
2013-04-23 15:48:00,56.2,42.0,30.13,East,84,1.0,5.0,60,0.00,,,0.00,weatherlink.com 1.10,2013-04-23 19:48:00,
2013-04-23 16:03:00,58.2,44.0,30.12,NW,311,1.0,6.0,60,0.00,,,0.00,weatherlink.com 1.10,2013-04-23 20:03:00,
2013-04-23 16:18:00,57.3,42.0,30.11,South,172,0.0,5.0,58,0.00,,,0.00,weatherlink.com 1.10,2013-04-23 20:18:00,
2013-04-23 16:33:00,57.5,42.0,30.09,East,100,1.0,6.0,57,0.00,,,0.00,weatherlink.com 1.10,2013-04-23 20:33:00,
2013-04-23 16:48:00,57.5,42.0,30.09,SE,134,1.0,7.0,57,0.00,,,0.00,weatherlink.com 1.10,2013-04-23 20:48:00,
2013-04-23 17:03:00,58.1,43.0,30.08,East,88,2.0,3.0,57,0.00,,,0.00,weatherlink.com 1.10,2013-04-23 21:03:00,
2013-04-23 17:18:00,58.3,42.0,30.07,East,93,1.0,6.0,55,0.00,,,0.00,weatherlink.com 1.10,2013-04-23 21:18:00,
2013-04-23 17:33:00,58.5,43.0,30.08,SW,234,0.0,3.0,57,0.00,,,0.00,weatherlink.com 1.10,2013-04-23 21:33:00,
2013-04-23 17:48:00,59.4,43.0,30.08,East,80,3.0,4.0,54,0.00,,,0.00,weatherlink.com 1.10,2013-04-23 21:48:00,
2013-04-23 18:03:00,58.8,42.0,30.09,East,99,2.0,4.0,55,0.00,,,0.00,weatherlink.com 1.10,2013-04-23 22:03:00,
2013-04-23 18:18:00,58.2,42.0,30.08,ESE,110,1.0,6.0,56,0.00,,,0.00,weatherlink.com 1.10,2013-04-23 22:18:00,
2013-04-23 18:33:00,57.9,42.0,30.08,ESE,119,2.0,3.0,56,0.00,,,0.00,weatherlink.com 1.10,2013-04-23 22:33:00,
2013-04-23 18:48:00,57.3,42.0,30.07,ESE,116,1.0,5.0,58,0.00,,,0.00,weatherlink.com 1.10,2013-04-23 22:48:00,
2013-04-23 19:03:00,56.8,42.0,30.07,SSE,167,1.0,3.0,59,0.00,,,0.00,weatherlink.com 1.10,2013-04-23 23:03:00,
2013-04-23 19:18:00,56.0,43.0,30.06,ENE,78,0.0,2.0,61,0.00,,,0.00,weatherlink.com 1.10,2013-04-23 23:18:00,
2013-04-23 19:33:00,55.0,42.0,30.06,ESE,115,0.0,3.0,62,0.00,,,0.00,weatherlink.com 1.10,2013-04-23 23:33:00,
2013-04-23 19:48:00,54.5,41.0,30.07,SSE,153,0.0,1.0,61,0.00,,,0.00,weatherlink.com 1.10,2013-04-23 23:48:00,
2013-04-23 20:03:00,53.9,41.0,30.07,SE,134,0.0,0.0,63,0.00,,,0.00,weatherlink.com 1.10,2013-04-24 00:03:00,
2013-04-23 20:18:00,52.6,41.0,30.08,SE,134,0.0,0.0,66,0.00,,,0.00,weatherlink.com 1.10,2013-04-24 00:18:00,
2013-04-23 20:33:00,51.3,42.0,30.09,SE,134,0.0,0.0,70,0.00,,,0.00,weatherlink.com 1.10,2013-04-24 00:33:00,
2013-04-23 20:48:00,50.1,42.0,30.09,SE,134,0.0,0.0,73,0.00,,,0.00,weatherlink.com 1.10,2013-04-24 00:48:00,
2013-04-23 21:03:00,49.1,42.0,30.09,SE,134,0.0,0.0,75,0.00,,,0.00,weatherlink.com 1.10,2013-04-24 01:03:00,
2013-04-23 21:18:00,48.1,41.0,30.08,SE,134,0.0,0.0,77,0.00,,,0.00,weatherlink.com 1.10,2013-04-24 01:18:00,
2013-04-23 21:33:00,47.6,41.0,30.07,SE,134,0.0,0.0,79,0.00,,,0.00,weatherlink.com 1.10,2013-04-24 01:33:00,
2013-04-23 21:48:00,47.1,41.0,30.07,SE,134,0.0,0.0,80,0.00,,,0.00,weatherlink.com 1.10,2013-04-24 01:48:00,
2013-04-23 22:03:00,46.3,41.0,30.07,SE,134,0.0,0.0,81,0.00,,,0.00,weatherlink.com 1.10,2013-04-24 02:03:00,
2013-04-23 22:18:00,45.7,41.0,30.07,SE,134,0.0,0.0,83,0.00,,,0.00,weatherlink.com 1.10,2013-04-24 02:18:00,
2013-04-23 22:33:00,45.1,41.0,30.06,SE,134,0.0,0.0,85,0.00,,,0.00,weatherlink.com 1.10,2013-04-24 02:33:00,
2013-04-23 22:48:00,44.5,40.0,30.06,SE,134,0.0,0.0,85,0.00,,,0.00,weatherlink.com 1.10,2013-04-24 02:48:00,
2013-04-23 23:18:00,43.4,40.0,30.04,SE,134,0.0,0.0,88,0.00,,,0.00,weatherlink.com 1.10,2013-04-24 03:18:00,
2013-04-23 23:33:00,43.0,40.0,30.04,SE,134,0.0,0.0,88,0.00,,,0.00,weatherlink.com 1.10,2013-04-24 03:33:00,
2013-04-23 23:48:00,42.5,39.0,30.04,SE,134,0.0,0.0,88,0.00,,,0.00,weatherlink.com 1.10,2013-04-24 03:48:00,